sensor_id;sensor_type;location;lat;lon;timestamp;P1;durP1;ratioP1;P2;durP2;ratioP2
11539;SDS011;5826;54.756;9.192;2023-07-08T00:02:10;2.75;;;2.20;;
11539;SDS011;5826;54.756;9.192;2023-07-08T00:04:37;6.05;;;2.00;;
11539;SDS011;5826;54.756;9.192;2023-07-08T00:07:03;2.00;;;1.80;;
11539;SDS011;5826;54.756;9.192;2023-07-08T00:09:29;2.42;;;1.77;;
11539;SDS011;5826;54.756;9.192;2023-07-08T00:11:55;2.75;;;2.28;;
11539;SDS011;5826;54.756;9.192;2023-07-08T00:14:22;2.10;;;1.90;;
11539;SDS011;5826;54.756;9.192;2023-07-08T00:16:48;2.50;;;2.00;;
11539;SDS011;5826;54.756;9.192;2023-07-08T00:19:14;2.42;;;2.00;;
11539;SDS011;5826;54.756;9.192;2023-07-08T00:21:44;2.28;;;2.08;;
11539;SDS011;5826;54.756;9.192;2023-07-08T00:24:10;2.10;;;1.92;;
11539;SDS011;5826;54.756;9.192;2023-07-08T00:26:35;2.88;;;2.35;;
11539;SDS011;5826;54.756;9.192;2023-07-08T00:29:01;2.45;;;2.25;;
11539;SDS011;5826;54.756;9.192;2023-07-08T00:31:26;2.45;;;2.25;;
11539;SDS011;5826;54.756;9.192;2023-07-08T00:33:52;2.65;;;2.42;;
11539;SDS011;5826;54.756;9.192;2023-07-08T00:36:20;2.75;;;2.30;;
11539;SDS011;5826;54.756;9.192;2023-07-08T00:38:47;3.00;;;2.25;;
11539;SDS011;5826;54.756;9.192;2023-07-08T00:41:18;2.85;;;2.47;;
11539;SDS011;5826;54.756;9.192;2023-07-08T00:43:50;2.63;;;2.42;;
11539;SDS011;5826;54.756;9.192;2023-07-08T00:48:53;4.68;;;2.50;;
11539;SDS011;5826;54.756;9.192;2023-07-08T00:51:32;2.60;;;2.38;;
11539;SDS011;5826;54.756;9.192;2023-07-08T00:53:58;2.53;;;2.33;;
11539;SDS011;5826;54.756;9.192;2023-07-08T00:56:35;2.58;;;2.38;;
11539;SDS011;5826;54.756;9.192;2023-07-08T00:59:27;2.60;;;2.30;;
11539;SDS011;5826;54.756;9.192;2023-07-08T01:02:00;2.65;;;2.40;;
11539;SDS011;5826;54.756;9.192;2023-07-08T01:04:33;2.63;;;2.40;;
11539;SDS011;5826;54.756;9.192;2023-07-08T01:07:07;2.78;;;2.17;;
11539;SDS011;5826;54.756;9.192;2023-07-08T01:09:40;2.85;;;2.55;;
11539;SDS011;5826;54.756;9.192;2023-07-08T01:12:11;3.10;;;2.08;;
11539;SDS011;5826;54.756;9.192;2023-07-08T01:14:42;3.17;;;2.35;;
11539;SDS011;5826;54.756;9.192;2023-07-08T01:17:09;3.15;;;2.42;;
11539;SDS011;5826;54.756;9.192;2023-07-08T01:19:42;2.90;;;2.58;;
11539;SDS011;5826;54.756;9.192;2023-07-08T01:22:09;2.70;;;2.50;;
11539;SDS011;5826;54.756;9.192;2023-07-08T01:24:36;3.15;;;2.63;;
11539;SDS011;5826;54.756;9.192;2023-07-08T01:27:04;2.80;;;2.42;;
11539;SDS011;5826;54.756;9.192;2023-07-08T01:29:32;2.90;;;2.70;;
11539;SDS011;5826;54.756;9.192;2023-07-08T01:31:58;2.90;;;2.60;;
11539;SDS011;5826;54.756;9.192;2023-07-08T01:34:27;3.45;;;2.40;;
11539;SDS011;5826;54.756;9.192;2023-07-08T01:36:54;3.17;;;2.72;;
11539;SDS011;5826;54.756;9.192;2023-07-08T01:39:22;3.78;;;2.70;;
11539;SDS011;5826;54.756;9.192;2023-07-08T01:41:48;3.08;;;2.78;;
11539;SDS011;5826;54.756;9.192;2023-07-08T01:46:52;3.45;;;2.60;;
11539;SDS011;5826;54.756;9.192;2023-07-08T01:49:21;3.03;;;2.78;;
11539;SDS011;5826;54.756;9.192;2023-07-08T01:51:47;3.50;;;2.60;;
11539;SDS011;5826;54.756;9.192;2023-07-08T01:54:14;3.72;;;3.00;;
11539;SDS011;5826;54.756;9.192;2023-07-08T01:56:40;3.25;;;2.47;;
11539;SDS011;5826;54.756;9.192;2023-07-08T01:59:05;2.90;;;2.70;;
11539;SDS011;5826;54.756;9.192;2023-07-08T02:01:31;3.72;;;3.00;;
11539;SDS011;5826;54.756;9.192;2023-07-08T02:03:56;3.28;;;2.67;;
11539;SDS011;5826;54.756;9.192;2023-07-08T02:06:21;3.13;;;2.83;;
11539;SDS011;5826;54.756;9.192;2023-07-08T02:08:47;4.05;;;2.63;;
11539;SDS011;5826;54.756;9.192;2023-07-08T02:11:13;2.78;;;2.58;;
11539;SDS011;5826;54.756;9.192;2023-07-08T02:13:38;3.28;;;2.97;;
11539;SDS011;5826;54.756;9.192;2023-07-08T02:16:06;3.33;;;2.90;;
11539;SDS011;5826;54.756;9.192;2023-07-08T02:18:32;2.67;;;2.47;;
11539;SDS011;5826;54.756;9.192;2023-07-08T02:20:57;4.38;;;2.67;;
11539;SDS011;5826;54.756;9.192;2023-07-08T02:23:24;3.17;;;2.88;;
11539;SDS011;5826;54.756;9.192;2023-07-08T02:25:51;2.70;;;2.50;;
11539;SDS011;5826;54.756;9.192;2023-07-08T02:28:17;2.90;;;2.58;;
11539;SDS011;5826;54.756;9.192;2023-07-08T02:30:43;2.83;;;2.63;;
11539;SDS011;5826;54.756;9.192;2023-07-08T02:33:10;2.80;;;2.60;;
11539;SDS011;5826;54.756;9.192;2023-07-08T02:35:36;3.30;;;3.00;;
11539;SDS011;5826;54.756;9.192;2023-07-08T02:38:01;2.85;;;2.58;;
11539;SDS011;5826;54.756;9.192;2023-07-08T02:40:28;4.00;;;2.72;;
11539;SDS011;5826;54.756;9.192;2023-07-08T02:42:53;2.83;;;2.63;;
11539;SDS011;5826;54.756;9.192;2023-07-08T02:45:19;3.83;;;2.80;;
11539;SDS011;5826;54.756;9.192;2023-07-08T02:47:44;2.88;;;2.63;;
11539;SDS011;5826;54.756;9.192;2023-07-08T02:50:10;3.95;;;2.90;;
11539;SDS011;5826;54.756;9.192;2023-07-08T02:52:36;3.65;;;2.80;;
11539;SDS011;5826;54.756;9.192;2023-07-08T02:55:02;3.67;;;2.80;;
11539;SDS011;5826;54.756;9.192;2023-07-08T02:57:28;3.70;;;3.10;;
11539;SDS011;5826;54.756;9.192;2023-07-08T02:59:54;3.17;;;2.85;;
11539;SDS011;5826;54.756;9.192;2023-07-08T03:02:20;3.35;;;2.60;;
11539;SDS011;5826;54.756;9.192;2023-07-08T03:04:46;3.00;;;2.67;;
11539;SDS011;5826;54.756;9.192;2023-07-08T03:07:15;3.28;;;2.97;;
11539;SDS011;5826;54.756;9.192;2023-07-08T03:09:41;3.75;;;2.85;;
11539;SDS011;5826;54.756;9.192;2023-07-08T03:12:07;4.95;;;3.33;;
11539;SDS011;5826;54.756;9.192;2023-07-08T03:14:34;4.18;;;3.13;;
11539;SDS011;5826;54.756;9.192;2023-07-08T03:17:01;4.32;;;3.35;;
11539;SDS011;5826;54.756;9.192;2023-07-08T03:19:27;3.53;;;3.22;;
11539;SDS011;5826;54.756;9.192;2023-07-08T03:21:52;4.22;;;3.78;;
11539;SDS011;5826;54.756;9.192;2023-07-08T03:24:18;3.95;;;3.55;;
11539;SDS011;5826;54.756;9.192;2023-07-08T03:26:44;4.43;;;3.60;;
11539;SDS011;5826;54.756;9.192;2023-07-08T03:29:17;4.05;;;3.72;;
11539;SDS011;5826;54.756;9.192;2023-07-08T03:31:44;6.15;;;4.00;;
11539;SDS011;5826;54.756;9.192;2023-07-08T03:34:10;4.07;;;3.67;;
11539;SDS011;5826;54.756;9.192;2023-07-08T03:36:41;4.22;;;3.83;;
11539;SDS011;5826;54.756;9.192;2023-07-08T03:39:14;3.70;;;3.40;;
11539;SDS011;5826;54.756;9.192;2023-07-08T03:41:43;4.25;;;3.65;;
11539;SDS011;5826;54.756;9.192;2023-07-08T03:44:10;4.32;;;3.88;;
11539;SDS011;5826;54.756;9.192;2023-07-08T03:46:36;4.43;;;3.72;;
11539;SDS011;5826;54.756;9.192;2023-07-08T03:49:01;3.97;;;3.60;;
11539;SDS011;5826;54.756;9.192;2023-07-08T03:51:31;4.13;;;3.72;;
11539;SDS011;5826;54.756;9.192;2023-07-08T03:54:00;4.78;;;3.42;;
11539;SDS011;5826;54.756;9.192;2023-07-08T03:56:25;4.18;;;3.78;;
11539;SDS011;5826;54.756;9.192;2023-07-08T03:58:51;4.05;;;3.42;;
11539;SDS011;5826;54.756;9.192;2023-07-08T04:01:17;3.80;;;3.45;;
11539;SDS011;5826;54.756;9.192;2023-07-08T04:03:55;4.00;;;3.60;;
11539;SDS011;5826;54.756;9.192;2023-07-08T04:06:22;3.95;;;3.58;;
11539;SDS011;5826;54.756;9.192;2023-07-08T04:08:48;4.07;;;3.63;;
11539;SDS011;5826;54.756;9.192;2023-07-08T04:11:15;4.57;;;3.75;;
11539;SDS011;5826;54.756;9.192;2023-07-08T04:13:42;3.83;;;3.35;;
11539;SDS011;5826;54.756;9.192;2023-07-08T04:16:09;3.95;;;3.58;;
11539;SDS011;5826;54.756;9.192;2023-07-08T04:18:41;3.63;;;3.33;;
11539;SDS011;5826;54.756;9.192;2023-07-08T04:21:06;4.32;;;3.63;;
11539;SDS011;5826;54.756;9.192;2023-07-08T04:23:32;4.35;;;3.80;;
11539;SDS011;5826;54.756;9.192;2023-07-08T04:25:58;3.97;;;3.58;;
11539;SDS011;5826;54.756;9.192;2023-07-08T04:28:24;3.92;;;3.45;;
11539;SDS011;5826;54.756;9.192;2023-07-08T04:30:49;3.78;;;3.47;;
11539;SDS011;5826;54.756;9.192;2023-07-08T04:33:15;4.05;;;3.65;;
11539;SDS011;5826;54.756;9.192;2023-07-08T04:35:41;4.53;;;3.38;;
11539;SDS011;5826;54.756;9.192;2023-07-08T04:38:13;5.00;;;3.60;;
11539;SDS011;5826;54.756;9.192;2023-07-08T04:40:46;3.60;;;3.30;;
11539;SDS011;5826;54.756;9.192;2023-07-08T04:43:12;3.70;;;3.40;;
11539;SDS011;5826;54.756;9.192;2023-07-08T04:45:38;3.45;;;3.15;;
11539;SDS011;5826;54.756;9.192;2023-07-08T04:48:05;4.13;;;3.50;;
11539;SDS011;5826;54.756;9.192;2023-07-08T04:50:38;3.50;;;3.20;;
11539;SDS011;5826;54.756;9.192;2023-07-08T04:53:05;4.25;;;3.28;;
11539;SDS011;5826;54.756;9.192;2023-07-08T04:55:30;4.03;;;2.90;;
11539;SDS011;5826;54.756;9.192;2023-07-08T04:57:56;3.30;;;3.00;;
11539;SDS011;5826;54.756;9.192;2023-07-08T05:00:21;4.32;;;3.35;;
11539;SDS011;5826;54.756;9.192;2023-07-08T05:02:47;3.65;;;3.35;;
11539;SDS011;5826;54.756;9.192;2023-07-08T05:05:13;3.38;;;3.05;;
11539;SDS011;5826;54.756;9.192;2023-07-08T05:07:38;3.47;;;3.17;;
11539;SDS011;5826;54.756;9.192;2023-07-08T05:10:04;4.03;;;3.55;;
11539;SDS011;5826;54.756;9.192;2023-07-08T05:12:30;3.40;;;3.10;;
11539;SDS011;5826;54.756;9.192;2023-07-08T05:14:55;3.38;;;3.03;;
11539;SDS011;5826;54.756;9.192;2023-07-08T05:17:20;4.18;;;3.78;;
11539;SDS011;5826;54.756;9.192;2023-07-08T05:19:46;3.85;;;3.13;;
11539;SDS011;5826;54.756;9.192;2023-07-08T05:22:15;3.47;;;3.17;;
11539;SDS011;5826;54.756;9.192;2023-07-08T05:24:43;3.10;;;2.80;;
11539;SDS011;5826;54.756;9.192;2023-07-08T05:27:08;3.30;;;2.80;;
11539;SDS011;5826;54.756;9.192;2023-07-08T05:29:34;3.42;;;2.80;;
11539;SDS011;5826;54.756;9.192;2023-07-08T05:31:59;3.72;;;3.05;;
11539;SDS011;5826;54.756;9.192;2023-07-08T05:34:25;3.30;;;2.90;;
11539;SDS011;5826;54.756;9.192;2023-07-08T05:36:50;2.97;;;2.78;;
11539;SDS011;5826;54.756;9.192;2023-07-08T05:39:16;2.80;;;2.60;;
11539;SDS011;5826;54.756;9.192;2023-07-08T05:41:41;3.70;;;2.75;;
11539;SDS011;5826;54.756;9.192;2023-07-08T05:44:07;3.00;;;2.70;;
11539;SDS011;5826;54.756;9.192;2023-07-08T05:46:32;2.70;;;2.50;;
11539;SDS011;5826;54.756;9.192;2023-07-08T05:48:58;3.10;;;2.72;;
11539;SDS011;5826;54.756;9.192;2023-07-08T05:51:23;3.33;;;2.30;;
11539;SDS011;5826;54.756;9.192;2023-07-08T05:53:49;2.97;;;2.30;;
11539;SDS011;5826;54.756;9.192;2023-07-08T05:56:14;3.13;;;2.50;;
11539;SDS011;5826;54.756;9.192;2023-07-08T05:58:40;2.10;;;1.95;;
11539;SDS011;5826;54.756;9.192;2023-07-08T06:01:05;2.60;;;2.20;;
11539;SDS011;5826;54.756;9.192;2023-07-08T06:03:31;2.40;;;2.20;;
11539;SDS011;5826;54.756;9.192;2023-07-08T06:05:56;2.55;;;2.03;;
11539;SDS011;5826;54.756;9.192;2023-07-08T06:08:22;2.30;;;2.10;;
11539;SDS011;5826;54.756;9.192;2023-07-08T06:10:47;2.80;;;2.10;;
11539;SDS011;5826;54.756;9.192;2023-07-08T06:13:14;1.98;;;1.88;;
11539;SDS011;5826;54.756;9.192;2023-07-08T06:15:39;1.98;;;1.77;;
11539;SDS011;5826;54.756;9.192;2023-07-08T06:18:06;3.00;;;2.28;;
11539;SDS011;5826;54.756;9.192;2023-07-08T06:20:31;2.40;;;2.20;;
11539;SDS011;5826;54.756;9.192;2023-07-08T06:22:57;2.15;;;1.90;;
11539;SDS011;5826;54.756;9.192;2023-07-08T06:25:22;2.00;;;1.70;;
11539;SDS011;5826;54.756;9.192;2023-07-08T06:27:48;2.40;;;2.20;;
11539;SDS011;5826;54.756;9.192;2023-07-08T06:30:13;1.90;;;1.70;;
11539;SDS011;5826;54.756;9.192;2023-07-08T06:32:39;2.17;;;2.08;;
11539;SDS011;5826;54.756;9.192;2023-07-08T06:35:05;2.20;;;2.00;;
11539;SDS011;5826;54.756;9.192;2023-07-08T06:37:30;2.30;;;2.10;;
11539;SDS011;5826;54.756;9.192;2023-07-08T06:39:56;2.67;;;2.10;;
11539;SDS011;5826;54.756;9.192;2023-07-08T06:42:21;2.47;;;2.28;;
11539;SDS011;5826;54.756;9.192;2023-07-08T06:44:47;2.35;;;2.15;;
11539;SDS011;5826;54.756;9.192;2023-07-08T06:47:18;2.50;;;2.30;;
11539;SDS011;5826;54.756;9.192;2023-07-08T06:49:45;2.35;;;2.15;;
11539;SDS011;5826;54.756;9.192;2023-07-08T06:52:11;2.85;;;2.38;;
11539;SDS011;5826;54.756;9.192;2023-07-08T06:54:37;2.22;;;2.00;;
11539;SDS011;5826;54.756;9.192;2023-07-08T06:57:02;2.90;;;2.15;;
11539;SDS011;5826;54.756;9.192;2023-07-08T06:59:28;2.75;;;2.03;;
11539;SDS011;5826;54.756;9.192;2023-07-08T07:01:54;2.63;;;2.28;;
11539;SDS011;5826;54.756;9.192;2023-07-08T07:04:19;2.50;;;2.30;;
11539;SDS011;5826;54.756;9.192;2023-07-08T07:06:45;2.63;;;2.42;;
11539;SDS011;5826;54.756;9.192;2023-07-08T07:09:10;3.22;;;2.13;;
11539;SDS011;5826;54.756;9.192;2023-07-08T07:11:36;2.35;;;2.10;;
11539;SDS011;5826;54.756;9.192;2023-07-08T07:14:01;2.85;;;2.10;;
11539;SDS011;5826;54.756;9.192;2023-07-08T07:16:27;3.90;;;2.22;;
11539;SDS011;5826;54.756;9.192;2023-07-08T07:18:53;1.90;;;1.80;;
11539;SDS011;5826;54.756;9.192;2023-07-08T07:21:18;3.25;;;2.17;;
11539;SDS011;5826;54.756;9.192;2023-07-08T07:23:44;1.90;;;1.80;;
11539;SDS011;5826;54.756;9.192;2023-07-08T07:26:10;2.85;;;2.58;;
11539;SDS011;5826;54.756;9.192;2023-07-08T07:28:35;2.38;;;2.05;;
11539;SDS011;5826;54.756;9.192;2023-07-08T07:31:01;2.10;;;2.00;;
11539;SDS011;5826;54.756;9.192;2023-07-08T07:33:31;2.53;;;2.33;;
11539;SDS011;5826;54.756;9.192;2023-07-08T07:35:57;2.72;;;2.03;;
11539;SDS011;5826;54.756;9.192;2023-07-08T07:38:23;2.88;;;2.25;;
11539;SDS011;5826;54.756;9.192;2023-07-08T07:40:53;2.53;;;2.33;;
11539;SDS011;5826;54.756;9.192;2023-07-08T07:43:19;2.65;;;2.17;;
11539;SDS011;5826;54.756;9.192;2023-07-08T07:45:44;2.83;;;2.30;;
11539;SDS011;5826;54.756;9.192;2023-07-08T07:48:10;2.45;;;2.25;;
11539;SDS011;5826;54.756;9.192;2023-07-08T07:50:35;2.65;;;2.45;;
11539;SDS011;5826;54.756;9.192;2023-07-08T07:53:01;3.88;;;2.60;;
11539;SDS011;5826;54.756;9.192;2023-07-08T07:55:26;3.28;;;2.55;;
11539;SDS011;5826;54.756;9.192;2023-07-08T07:57:52;3.67;;;2.55;;
11539;SDS011;5826;54.756;9.192;2023-07-08T08:00:17;4.75;;;2.72;;
11539;SDS011;5826;54.756;9.192;2023-07-08T08:02:43;2.83;;;2.63;;
11539;SDS011;5826;54.756;9.192;2023-07-08T08:05:08;2.83;;;2.40;;
11539;SDS011;5826;54.756;9.192;2023-07-08T08:07:34;2.95;;;2.60;;
11539;SDS011;5826;54.756;9.192;2023-07-08T08:10:01;3.42;;;2.65;;
11539;SDS011;5826;54.756;9.192;2023-07-08T08:12:26;2.45;;;2.10;;
11539;SDS011;5826;54.756;9.192;2023-07-08T08:14:52;3.30;;;2.50;;
11539;SDS011;5826;54.756;9.192;2023-07-08T08:17:17;2.30;;;2.10;;
11539;SDS011;5826;54.756;9.192;2023-07-08T08:19:43;2.65;;;2.45;;
11539;SDS011;5826;54.756;9.192;2023-07-08T08:22:08;2.85;;;2.58;;
11539;SDS011;5826;54.756;9.192;2023-07-08T08:24:34;2.33;;;2.13;;
11539;SDS011;5826;54.756;9.192;2023-07-08T08:26:59;2.60;;;2.40;;
11539;SDS011;5826;54.756;9.192;2023-07-08T08:29:25;3.03;;;2.20;;
11539;SDS011;5826;54.756;9.192;2023-07-08T08:31:50;2.53;;;2.30;;
11539;SDS011;5826;54.756;9.192;2023-07-08T08:34:16;2.70;;;2.30;;
11539;SDS011;5826;54.756;9.192;2023-07-08T08:36:42;2.58;;;2.20;;
11539;SDS011;5826;54.756;9.192;2023-07-08T08:39:07;2.50;;;2.30;;
11539;SDS011;5826;54.756;9.192;2023-07-08T08:41:34;2.45;;;2.00;;
11539;SDS011;5826;54.756;9.192;2023-07-08T08:44:05;2.30;;;2.10;;
11539;SDS011;5826;54.756;9.192;2023-07-08T08:49:15;2.55;;;2.00;;
11539;SDS011;5826;54.756;9.192;2023-07-08T08:51:42;3.50;;;2.30;;
11539;SDS011;5826;54.756;9.192;2023-07-08T08:54:07;3.35;;;2.40;;
11539;SDS011;5826;54.756;9.192;2023-07-08T08:56:46;2.55;;;2.30;;
11539;SDS011;5826;54.756;9.192;2023-07-08T09:02:17;3.70;;;2.30;;
11539;SDS011;5826;54.756;9.192;2023-07-08T09:04:50;2.85;;;2.28;;
11539;SDS011;5826;54.756;9.192;2023-07-08T09:07:16;3.05;;;2.38;;
11539;SDS011;5826;54.756;9.192;2023-07-08T09:09:49;2.63;;;2.40;;
11539;SDS011;5826;54.756;9.192;2023-07-08T09:12:17;2.40;;;2.20;;
11539;SDS011;5826;54.756;9.192;2023-07-08T09:14:50;2.78;;;2.55;;
11539;SDS011;5826;54.756;9.192;2023-07-08T09:17:22;2.85;;;2.10;;
11539;SDS011;5826;54.756;9.192;2023-07-08T09:25:57;3.00;;;2.40;;
11539;SDS011;5826;54.756;9.192;2023-07-08T09:28:41;2.38;;;2.17;;
11539;SDS011;5826;54.756;9.192;2023-07-08T09:31:10;3.00;;;1.88;;
11539;SDS011;5826;54.756;9.192;2023-07-08T09:36:42;2.53;;;2.30;;
11539;SDS011;5826;54.756;9.192;2023-07-08T09:39:10;2.40;;;2.20;;
11539;SDS011;5826;54.756;9.192;2023-07-08T09:41:41;3.00;;;2.42;;
11539;SDS011;5826;54.756;9.192;2023-07-08T09:44:22;2.42;;;2.05;;
11539;SDS011;5826;54.756;9.192;2023-07-08T09:46:51;2.28;;;2.08;;
11539;SDS011;5826;54.756;9.192;2023-07-08T09:49:19;2.88;;;2.30;;
11539;SDS011;5826;54.756;9.192;2023-07-08T09:51:51;2.55;;;1.98;;
11539;SDS011;5826;54.756;9.192;2023-07-08T09:54:20;2.25;;;2.00;;
11539;SDS011;5826;54.756;9.192;2023-07-08T09:57:04;2.30;;;2.00;;
11539;SDS011;5826;54.756;9.192;2023-07-08T09:59:43;2.25;;;2.00;;
11539;SDS011;5826;54.756;9.192;2023-07-08T10:02:29;2.20;;;2.00;;
11539;SDS011;5826;54.756;9.192;2023-07-08T10:04:56;2.83;;;1.67;;
11539;SDS011;5826;54.756;9.192;2023-07-08T10:07:24;2.30;;;2.10;;
11539;SDS011;5826;54.756;9.192;2023-07-08T10:09:57;2.08;;;1.90;;
11539;SDS011;5826;54.756;9.192;2023-07-08T10:12:25;2.53;;;2.00;;
11539;SDS011;5826;54.756;9.192;2023-07-08T10:14:53;2.22;;;2.03;;
11539;SDS011;5826;54.756;9.192;2023-07-08T10:17:22;2.22;;;2.00;;
11539;SDS011;5826;54.756;9.192;2023-07-08T10:19:48;2.40;;;2.20;;
11539;SDS011;5826;54.756;9.192;2023-07-08T10:33:41;2.42;;;2.22;;
11539;SDS011;5826;54.756;9.192;2023-07-08T10:36:23;2.58;;;2.30;;
11539;SDS011;5826;54.756;9.192;2023-07-08T10:38:56;3.45;;;2.20;;
11539;SDS011;5826;54.756;9.192;2023-07-08T10:41:47;3.20;;;2.22;;
11539;SDS011;5826;54.756;9.192;2023-07-08T10:44:33;2.22;;;2.03;;
11539;SDS011;5826;54.756;9.192;2023-07-08T10:47:32;2.20;;;2.00;;
11539;SDS011;5826;54.756;9.192;2023-07-08T10:53:21;2.38;;;2.10;;
11539;SDS011;5826;54.756;9.192;2023-07-08T10:56:20;2.35;;;2.00;;
11539;SDS011;5826;54.756;9.192;2023-07-08T11:04:43;2.47;;;2.08;;
11539;SDS011;5826;54.756;9.192;2023-07-08T11:10:07;2.10;;;1.90;;
11539;SDS011;5826;54.756;9.192;2023-07-08T11:12:52;2.42;;;2.08;;
11539;SDS011;5826;54.756;9.192;2023-07-08T11:15:31;2.10;;;1.90;;
11539;SDS011;5826;54.756;9.192;2023-07-08T11:18:13;2.92;;;2.40;;
11539;SDS011;5826;54.756;9.192;2023-07-08T11:21:05;2.30;;;2.03;;
11539;SDS011;5826;54.756;9.192;2023-07-08T11:23:54;2.20;;;2.00;;
11539;SDS011;5826;54.756;9.192;2023-07-08T11:26:28;2.38;;;2.10;;
11539;SDS011;5826;54.756;9.192;2023-07-08T11:29:01;2.30;;;2.10;;
11539;SDS011;5826;54.756;9.192;2023-07-08T11:31:36;3.88;;;2.20;;
11539;SDS011;5826;54.756;9.192;2023-07-08T11:34:02;3.00;;;2.20;;
11539;SDS011;5826;54.756;9.192;2023-07-08T11:36:28;2.15;;;1.95;;
11539;SDS011;5826;54.756;9.192;2023-07-08T11:38:55;3.03;;;2.55;;
11539;SDS011;5826;54.756;9.192;2023-07-08T11:41:23;2.40;;;2.10;;
11539;SDS011;5826;54.756;9.192;2023-07-08T11:43:52;2.28;;;2.05;;
11539;SDS011;5826;54.756;9.192;2023-07-08T11:46:25;2.15;;;2.00;;
11539;SDS011;5826;54.756;9.192;2023-07-08T11:48:54;2.30;;;2.10;;
11539;SDS011;5826;54.756;9.192;2023-07-08T11:51:23;2.83;;;2.35;;
11539;SDS011;5826;54.756;9.192;2023-07-08T11:53:59;3.88;;;2.00;;
11539;SDS011;5826;54.756;9.192;2023-07-08T11:56:46;2.45;;;2.20;;
11539;SDS011;5826;54.756;9.192;2023-07-08T11:59:14;2.88;;;2.38;;
11539;SDS011;5826;54.756;9.192;2023-07-08T12:01:53;2.20;;;1.90;;
11539;SDS011;5826;54.756;9.192;2023-07-08T12:09:35;2.28;;;1.98;;
11539;SDS011;5826;54.756;9.192;2023-07-08T12:12:07;2.00;;;1.90;;
11539;SDS011;5826;54.756;9.192;2023-07-08T12:14:40;2.85;;;2.38;;
11539;SDS011;5826;54.756;9.192;2023-07-08T12:17:12;2.20;;;1.92;;
11539;SDS011;5826;54.756;9.192;2023-07-08T12:19:39;2.45;;;2.17;;
11539;SDS011;5826;54.756;9.192;2023-07-08T12:22:09;2.10;;;1.90;;
11539;SDS011;5826;54.756;9.192;2023-07-08T12:24:36;2.47;;;2.28;;
11539;SDS011;5826;54.756;9.192;2023-07-08T12:27:02;2.67;;;1.98;;
11539;SDS011;5826;54.756;9.192;2023-07-08T12:29:28;2.95;;;2.35;;
11539;SDS011;5826;54.756;9.192;2023-07-08T12:31:54;2.80;;;2.42;;
11539;SDS011;5826;54.756;9.192;2023-07-08T12:34:20;2.20;;;1.92;;
11539;SDS011;5826;54.756;9.192;2023-07-08T12:36:50;2.42;;;2.22;;
11539;SDS011;5826;54.756;9.192;2023-07-08T12:39:15;3.20;;;2.10;;
11539;SDS011;5826;54.756;9.192;2023-07-08T12:41:42;2.35;;;2.15;;
11539;SDS011;5826;54.756;9.192;2023-07-08T12:44:17;2.42;;;2.22;;
11539;SDS011;5826;54.756;9.192;2023-07-08T12:46:47;2.67;;;2.38;;
11539;SDS011;5826;54.756;9.192;2023-07-08T12:49:14;2.20;;;2.00;;
11539;SDS011;5826;54.756;9.192;2023-07-08T12:51:41;2.50;;;2.30;;
11539;SDS011;5826;54.756;9.192;2023-07-08T12:54:08;2.30;;;2.08;;
11539;SDS011;5826;54.756;9.192;2023-07-08T12:56:35;4.28;;;2.22;;
11539;SDS011;5826;54.756;9.192;2023-07-08T12:59:02;3.00;;;2.00;;
11539;SDS011;5826;54.756;9.192;2023-07-08T13:01:31;2.80;;;2.15;;
11539;SDS011;5826;54.756;9.192;2023-07-08T13:04:02;2.50;;;2.30;;
11539;SDS011;5826;54.756;9.192;2023-07-08T13:06:30;2.60;;;2.38;;
11539;SDS011;5826;54.756;9.192;2023-07-08T13:11:44;3.65;;;2.42;;
11539;SDS011;5826;54.756;9.192;2023-07-08T13:14:11;4.00;;;2.50;;
11539;SDS011;5826;54.756;9.192;2023-07-08T13:16:39;4.38;;;2.60;;
11539;SDS011;5826;54.756;9.192;2023-07-08T13:19:05;2.75;;;2.28;;
11539;SDS011;5826;54.756;9.192;2023-07-08T13:21:31;2.50;;;2.30;;
11539;SDS011;5826;54.756;9.192;2023-07-08T13:23:57;2.40;;;2.20;;
11539;SDS011;5826;54.756;9.192;2023-07-08T13:26:25;2.40;;;2.20;;
11539;SDS011;5826;54.756;9.192;2023-07-08T13:29:00;3.53;;;2.40;;
11539;SDS011;5826;54.756;9.192;2023-07-08T13:31:33;2.70;;;2.50;;
11539;SDS011;5826;54.756;9.192;2023-07-08T13:34:08;2.97;;;2.22;;
11539;SDS011;5826;54.756;9.192;2023-07-08T13:36:42;3.63;;;2.53;;
11539;SDS011;5826;54.756;9.192;2023-07-08T13:39:14;2.95;;;2.47;;
11539;SDS011;5826;54.756;9.192;2023-07-08T13:41:45;2.50;;;2.30;;
11539;SDS011;5826;54.756;9.192;2023-07-08T13:44:11;5.35;;;2.83;;
11539;SDS011;5826;54.756;9.192;2023-07-08T13:46:43;2.33;;;1.98;;
11539;SDS011;5826;54.756;9.192;2023-07-08T13:49:18;2.88;;;2.30;;
11539;SDS011;5826;54.756;9.192;2023-07-08T13:52:03;2.90;;;2.63;;
11539;SDS011;5826;54.756;9.192;2023-07-08T13:54:53;3.00;;;2.42;;
11539;SDS011;5826;54.756;9.192;2023-07-08T13:57:27;2.67;;;2.45;;
11539;SDS011;5826;54.756;9.192;2023-07-08T13:59:56;3.90;;;2.60;;
11539;SDS011;5826;54.756;9.192;2023-07-08T14:02:23;3.05;;;2.72;;
11539;SDS011;5826;54.756;9.192;2023-07-08T14:04:51;3.08;;;2.40;;
11539;SDS011;5826;54.756;9.192;2023-07-08T14:07:19;2.92;;;2.58;;
11539;SDS011;5826;54.756;9.192;2023-07-08T14:09:47;2.90;;;2.50;;
11539;SDS011;5826;54.756;9.192;2023-07-08T14:12:12;2.92;;;2.25;;
11539;SDS011;5826;54.756;9.192;2023-07-08T14:14:38;2.65;;;2.30;;
11539;SDS011;5826;54.756;9.192;2023-07-08T14:17:04;2.65;;;2.30;;
11539;SDS011;5826;54.756;9.192;2023-07-08T14:19:31;3.17;;;2.22;;
11539;SDS011;5826;54.756;9.192;2023-07-08T14:22:00;3.33;;;2.58;;
11539;SDS011;5826;54.756;9.192;2023-07-08T14:24:27;3.72;;;2.65;;
11539;SDS011;5826;54.756;9.192;2023-07-08T14:26:53;3.78;;;2.55;;
11539;SDS011;5826;54.756;9.192;2023-07-08T14:29:19;2.45;;;2.13;;
11539;SDS011;5826;54.756;9.192;2023-07-08T14:31:45;2.78;;;2.40;;
11539;SDS011;5826;54.756;9.192;2023-07-08T14:34:26;2.83;;;2.17;;
11539;SDS011;5826;54.756;9.192;2023-07-08T14:36:52;3.75;;;2.30;;
11539;SDS011;5826;54.756;9.192;2023-07-08T14:39:18;2.42;;;2.20;;
11539;SDS011;5826;54.756;9.192;2023-07-08T14:41:45;2.40;;;2.20;;
11539;SDS011;5826;54.756;9.192;2023-07-08T14:44:20;4.00;;;2.38;;
11539;SDS011;5826;54.756;9.192;2023-07-08T14:46:47;2.40;;;2.20;;
11539;SDS011;5826;54.756;9.192;2023-07-08T14:49:15;3.10;;;2.42;;
11539;SDS011;5826;54.756;9.192;2023-07-08T14:51:42;2.40;;;2.20;;
11539;SDS011;5826;54.756;9.192;2023-07-08T14:54:07;2.85;;;2.10;;
11539;SDS011;5826;54.756;9.192;2023-07-08T14:56:33;3.67;;;2.30;;
11539;SDS011;5826;54.756;9.192;2023-07-08T14:58:58;3.15;;;2.38;;
11539;SDS011;5826;54.756;9.192;2023-07-08T15:01:24;2.38;;;2.17;;
11539;SDS011;5826;54.756;9.192;2023-07-08T15:03:54;2.03;;;1.83;;
11539;SDS011;5826;54.756;9.192;2023-07-08T15:06:20;2.28;;;2.08;;
11539;SDS011;5826;54.756;9.192;2023-07-08T15:08:46;3.72;;;2.40;;
11539;SDS011;5826;54.756;9.192;2023-07-08T15:11:12;2.78;;;2.35;;
11539;SDS011;5826;54.756;9.192;2023-07-08T15:13:39;2.78;;;2.42;;
11539;SDS011;5826;54.756;9.192;2023-07-08T15:16:10;2.30;;;2.10;;
11539;SDS011;5826;54.756;9.192;2023-07-08T15:18:39;2.67;;;2.30;;
11539;SDS011;5826;54.756;9.192;2023-07-08T15:21:04;2.10;;;2.00;;
11539;SDS011;5826;54.756;9.192;2023-07-08T15:23:35;2.50;;;2.30;;
11539;SDS011;5826;54.756;9.192;2023-07-08T15:26:00;3.15;;;2.30;;
11539;SDS011;5826;54.756;9.192;2023-07-08T15:28:42;2.38;;;2.13;;
11539;SDS011;5826;54.756;9.192;2023-07-08T15:31:17;2.65;;;2.22;;
11539;SDS011;5826;54.756;9.192;2023-07-08T15:33:45;2.30;;;2.10;;
11539;SDS011;5826;54.756;9.192;2023-07-08T15:36:11;3.35;;;2.35;;
11539;SDS011;5826;54.756;9.192;2023-07-08T15:38:38;2.22;;;2.03;;
11539;SDS011;5826;54.756;9.192;2023-07-08T15:41:05;2.42;;;2.05;;
11539;SDS011;5826;54.756;9.192;2023-07-08T15:43:39;2.40;;;2.20;;
11539;SDS011;5826;54.756;9.192;2023-07-08T15:46:04;2.47;;;2.28;;
11539;SDS011;5826;54.756;9.192;2023-07-08T15:48:32;2.45;;;2.25;;
11539;SDS011;5826;54.756;9.192;2023-07-08T15:50:57;3.90;;;2.47;;
11539;SDS011;5826;54.756;9.192;2023-07-08T15:53:23;2.50;;;2.30;;
11539;SDS011;5826;54.756;9.192;2023-07-08T15:55:48;2.63;;;2.22;;
11539;SDS011;5826;54.756;9.192;2023-07-08T16:00:45;2.90;;;2.70;;
11539;SDS011;5826;54.756;9.192;2023-07-08T16:03:31;3.50;;;2.83;;